sensor_id;sensor_type;location;lat;lon;timestamp;P1;durP1;ratioP1;P2;durP2;ratioP2
13832;SDS011;6987;19.472;-99.276;2023-02-04T00:01:36;12.55;;;5.78;;
13832;SDS011;6987;19.472;-99.276;2023-02-04T00:04:04;16.88;;;6.07;;
13832;SDS011;6987;19.472;-99.276;2023-02-04T00:06:33;7.93;;;5.50;;
13832;SDS011;6987;19.472;-99.276;2023-02-04T00:09:02;5.55;;;4.95;;
13832;SDS011;6987;19.472;-99.276;2023-02-04T00:11:33;10.00;;;5.97;;
13832;SDS011;6987;19.472;-99.276;2023-02-04T00:14:02;13.35;;;4.97;;
13832;SDS011;6987;19.472;-99.276;2023-02-04T00:16:31;7.53;;;4.80;;
13832;SDS011;6987;19.472;-99.276;2023-02-04T00:19:00;9.40;;;5.25;;
13832;SDS011;6987;19.472;-99.276;2023-02-04T00:21:29;7.88;;;4.65;;
13832;SDS011;6987;19.472;-99.276;2023-02-04T00:23:57;24.65;;;5.28;;
13832;SDS011;6987;19.472;-99.276;2023-02-04T00:26:26;4.75;;;4.40;;
13832;SDS011;6987;19.472;-99.276;2023-02-04T00:28:57;8.30;;;4.85;;
13832;SDS011;6987;19.472;-99.276;2023-02-04T00:31:26;12.68;;;4.65;;
13832;SDS011;6987;19.472;-99.276;2023-02-04T00:33:55;17.83;;;5.72;;
13832;SDS011;6987;19.472;-99.276;2023-02-04T00:36:24;8.38;;;4.65;;
13832;SDS011;6987;19.472;-99.276;2023-02-04T00:38:53;8.90;;;5.03;;
13832;SDS011;6987;19.472;-99.276;2023-02-04T00:41:22;7.18;;;3.97;;
13832;SDS011;6987;19.472;-99.276;2023-02-04T00:43:51;5.97;;;3.97;;
13832;SDS011;6987;19.472;-99.276;2023-02-04T00:46:21;7.38;;;4.70;;
13832;SDS011;6987;19.472;-99.276;2023-02-04T00:48:50;6.63;;;4.80;;
13832;SDS011;6987;19.472;-99.276;2023-02-04T00:51:19;4.90;;;4.43;;
13832;SDS011;6987;19.472;-99.276;2023-02-04T00:53:48;12.07;;;4.85;;
13832;SDS011;6987;19.472;-99.276;2023-02-04T00:56:17;6.60;;;4.63;;
13832;SDS011;6987;19.472;-99.276;2023-02-04T00:58:46;5.05;;;4.63;;
13832;SDS011;6987;19.472;-99.276;2023-02-04T01:01:15;8.18;;;4.85;;
13832;SDS011;6987;19.472;-99.276;2023-02-04T01:03:45;15.45;;;5.90;;
13832;SDS011;6987;19.472;-99.276;2023-02-04T01:06:14;8.02;;;5.60;;
13832;SDS011;6987;19.472;-99.276;2023-02-04T01:08:43;9.35;;;4.63;;
13832;SDS011;6987;19.472;-99.276;2023-02-04T01:11:13;5.13;;;4.68;;
13832;SDS011;6987;19.472;-99.276;2023-02-04T01:13:42;8.05;;;4.82;;
13832;SDS011;6987;19.472;-99.276;2023-02-04T01:16:11;5.68;;;4.60;;
13832;SDS011;6987;19.472;-99.276;2023-02-04T01:18:40;8.10;;;4.82;;
13832;SDS011;6987;19.472;-99.276;2023-02-04T01:21:11;7.60;;;4.25;;
13832;SDS011;6987;19.472;-99.276;2023-02-04T01:23:40;16.45;;;4.93;;
13832;SDS011;6987;19.472;-99.276;2023-02-04T01:26:09;5.45;;;3.95;;
13832;SDS011;6987;19.472;-99.276;2023-02-04T01:28:37;5.88;;;4.85;;
13832;SDS011;6987;19.472;-99.276;2023-02-04T01:31:06;8.85;;;4.88;;
13832;SDS011;6987;19.472;-99.276;2023-02-04T01:33:35;7.80;;;5.05;;
13832;SDS011;6987;19.472;-99.276;2023-02-04T01:36:04;8.65;;;4.60;;
13832;SDS011;6987;19.472;-99.276;2023-02-04T01:38:35;7.57;;;4.85;;
13832;SDS011;6987;19.472;-99.276;2023-02-04T01:41:04;7.18;;;4.68;;
13832;SDS011;6987;19.472;-99.276;2023-02-04T01:43:33;4.93;;;4.20;;
13832;SDS011;6987;19.472;-99.276;2023-02-04T01:46:02;6.10;;;4.72;;
13832;SDS011;6987;19.472;-99.276;2023-02-04T01:48:31;10.77;;;5.35;;
13832;SDS011;6987;19.472;-99.276;2023-02-04T01:51:01;6.05;;;4.32;;
13832;SDS011;6987;19.472;-99.276;2023-02-04T01:53:30;7.63;;;4.13;;
13832;SDS011;6987;19.472;-99.276;2023-02-04T01:56:02;4.63;;;4.30;;
13832;SDS011;6987;19.472;-99.276;2023-02-04T01:58:39;8.90;;;4.90;;
13832;SDS011;6987;19.472;-99.276;2023-02-04T02:01:09;5.35;;;4.55;;
13832;SDS011;6987;19.472;-99.276;2023-02-04T02:03:38;6.80;;;3.72;;
13832;SDS011;6987;19.472;-99.276;2023-02-04T02:06:07;5.20;;;4.63;;
13832;SDS011;6987;19.472;-99.276;2023-02-04T02:08:36;8.20;;;4.28;;
13832;SDS011;6987;19.472;-99.276;2023-02-04T02:11:07;6.80;;;4.97;;
13832;SDS011;6987;19.472;-99.276;2023-02-04T02:13:36;4.90;;;4.13;;
13832;SDS011;6987;19.472;-99.276;2023-02-04T02:16:05;6.50;;;4.32;;
13832;SDS011;6987;19.472;-99.276;2023-02-04T02:18:34;10.52;;;4.40;;
13832;SDS011;6987;19.472;-99.276;2023-02-04T02:21:04;5.32;;;4.38;;
13832;SDS011;6987;19.472;-99.276;2023-02-04T02:23:46;4.55;;;4.18;;
13832;SDS011;6987;19.472;-99.276;2023-02-04T02:26:15;7.65;;;3.88;;
13832;SDS011;6987;19.472;-99.276;2023-02-04T02:28:45;8.88;;;4.20;;
13832;SDS011;6987;19.472;-99.276;2023-02-04T02:31:15;7.72;;;4.78;;
13832;SDS011;6987;19.472;-99.276;2023-02-04T02:33:44;7.65;;;4.10;;
13832;SDS011;6987;19.472;-99.276;2023-02-04T02:36:13;4.22;;;3.83;;
13832;SDS011;6987;19.472;-99.276;2023-02-04T02:38:42;6.25;;;4.57;;
13832;SDS011;6987;19.472;-99.276;2023-02-04T02:41:13;10.18;;;5.13;;
13832;SDS011;6987;19.472;-99.276;2023-02-04T02:43:41;7.50;;;3.92;;
13832;SDS011;6987;19.472;-99.276;2023-02-04T02:46:10;8.68;;;4.28;;
13832;SDS011;6987;19.472;-99.276;2023-02-04T02:48:39;5.80;;;3.60;;
13832;SDS011;6987;19.472;-99.276;2023-02-04T02:51:08;4.43;;;3.78;;
13832;SDS011;6987;19.472;-99.276;2023-02-04T02:53:37;4.28;;;3.55;;
13832;SDS011;6987;19.472;-99.276;2023-02-04T02:56:06;6.72;;;3.95;;
13832;SDS011;6987;19.472;-99.276;2023-02-04T02:58:37;4.65;;;3.15;;
13832;SDS011;6987;19.472;-99.276;2023-02-04T03:01:06;4.72;;;3.40;;
13832;SDS011;6987;19.472;-99.276;2023-02-04T03:03:37;7.85;;;3.67;;
13832;SDS011;6987;19.472;-99.276;2023-02-04T03:06:06;3.58;;;3.22;;
13832;SDS011;6987;19.472;-99.276;2023-02-04T03:08:37;6.43;;;2.78;;
13832;SDS011;6987;19.472;-99.276;2023-02-04T03:11:06;3.85;;;3.13;;
13832;SDS011;6987;19.472;-99.276;2023-02-04T03:13:37;3.80;;;3.25;;
13832;SDS011;6987;19.472;-99.276;2023-02-04T03:16:06;3.75;;;3.17;;
13832;SDS011;6987;19.472;-99.276;2023-02-04T03:18:35;4.63;;;2.92;;
13832;SDS011;6987;19.472;-99.276;2023-02-04T03:21:05;3.45;;;3.15;;
13832;SDS011;6987;19.472;-99.276;2023-02-04T03:23:34;3.03;;;2.83;;
13832;SDS011;6987;19.472;-99.276;2023-02-04T03:26:03;3.95;;;3.53;;
13832;SDS011;6987;19.472;-99.276;2023-02-04T03:28:33;4.18;;;3.25;;
13832;SDS011;6987;19.472;-99.276;2023-02-04T03:31:08;3.42;;;2.88;;
13832;SDS011;6987;19.472;-99.276;2023-02-04T03:33:37;3.42;;;3.15;;
13832;SDS011;6987;19.472;-99.276;2023-02-04T03:36:07;5.25;;;3.20;;
13832;SDS011;6987;19.472;-99.276;2023-02-04T03:38:36;5.25;;;3.28;;
13832;SDS011;6987;19.472;-99.276;2023-02-04T03:41:06;2.83;;;2.63;;
13832;SDS011;6987;19.472;-99.276;2023-02-04T03:43:34;3.90;;;3.30;;
13832;SDS011;6987;19.472;-99.276;2023-02-04T03:46:03;3.03;;;2.63;;
13832;SDS011;6987;19.472;-99.276;2023-02-04T03:48:34;6.50;;;2.97;;
13832;SDS011;6987;19.472;-99.276;2023-02-04T03:51:03;5.65;;;3.30;;
13832;SDS011;6987;19.472;-99.276;2023-02-04T03:53:32;5.03;;;3.35;;
13832;SDS011;6987;19.472;-99.276;2023-02-04T03:56:01;3.63;;;2.97;;
13832;SDS011;6987;19.472;-99.276;2023-02-04T03:58:29;2.95;;;2.70;;
13832;SDS011;6987;19.472;-99.276;2023-02-04T04:00:58;3.08;;;2.75;;
13832;SDS011;6987;19.472;-99.276;2023-02-04T04:03:27;4.97;;;3.05;;
13832;SDS011;6987;19.472;-99.276;2023-02-04T04:05:58;3.15;;;2.95;;
13832;SDS011;6987;19.472;-99.276;2023-02-04T04:08:26;3.08;;;2.80;;
13832;SDS011;6987;19.472;-99.276;2023-02-04T04:10:55;5.78;;;3.10;;
13832;SDS011;6987;19.472;-99.276;2023-02-04T04:13:24;3.20;;;2.92;;
13832;SDS011;6987;19.472;-99.276;2023-02-04T04:15:53;5.72;;;2.92;;
13832;SDS011;6987;19.472;-99.276;2023-02-04T04:18:22;3.50;;;3.20;;
13832;SDS011;6987;19.472;-99.276;2023-02-04T04:20:51;3.50;;;3.30;;
13832;SDS011;6987;19.472;-99.276;2023-02-04T04:23:22;4.18;;;3.75;;
13832;SDS011;6987;19.472;-99.276;2023-02-04T04:25:50;3.60;;;3.33;;
13832;SDS011;6987;19.472;-99.276;2023-02-04T04:28:19;5.00;;;3.92;;
13832;SDS011;6987;19.472;-99.276;2023-02-04T04:30:48;7.30;;;3.80;;
13832;SDS011;6987;19.472;-99.276;2023-02-04T04:33:17;9.77;;;4.38;;
13832;SDS011;6987;19.472;-99.276;2023-02-04T04:35:46;10.32;;;4.30;;
13832;SDS011;6987;19.472;-99.276;2023-02-04T04:38:15;4.95;;;3.83;;
13832;SDS011;6987;19.472;-99.276;2023-02-04T04:40:46;4.53;;;3.55;;
13832;SDS011;6987;19.472;-99.276;2023-02-04T04:43:15;7.00;;;4.22;;
13832;SDS011;6987;19.472;-99.276;2023-02-04T04:45:43;5.97;;;4.00;;
13832;SDS011;6987;19.472;-99.276;2023-02-04T04:48:12;4.18;;;3.88;;
13832;SDS011;6987;19.472;-99.276;2023-02-04T04:50:41;4.18;;;3.78;;
13832;SDS011;6987;19.472;-99.276;2023-02-04T04:53:10;5.60;;;4.40;;
13832;SDS011;6987;19.472;-99.276;2023-02-04T04:55:39;5.63;;;4.80;;
13832;SDS011;6987;19.472;-99.276;2023-02-04T04:58:10;6.90;;;5.07;;
13832;SDS011;6987;19.472;-99.276;2023-02-04T05:00:39;6.75;;;5.10;;
13832;SDS011;6987;19.472;-99.276;2023-02-04T05:03:08;6.07;;;5.25;;
13832;SDS011;6987;19.472;-99.276;2023-02-04T05:05:36;6.43;;;5.80;;
13832;SDS011;6987;19.472;-99.276;2023-02-04T05:08:06;6.90;;;6.18;;
13832;SDS011;6987;19.472;-99.276;2023-02-04T05:10:38;6.60;;;5.35;;
13832;SDS011;6987;19.472;-99.276;2023-02-04T05:13:07;6.20;;;5.70;;
13832;SDS011;6987;19.472;-99.276;2023-02-04T05:15:38;6.53;;;5.65;;
13832;SDS011;6987;19.472;-99.276;2023-02-04T05:18:07;5.90;;;5.10;;
13832;SDS011;6987;19.472;-99.276;2023-02-04T05:20:35;6.03;;;5.18;;
13832;SDS011;6987;19.472;-99.276;2023-02-04T05:23:04;8.25;;;5.45;;
13832;SDS011;6987;19.472;-99.276;2023-02-04T05:25:33;6.07;;;5.57;;
13832;SDS011;6987;19.472;-99.276;2023-02-04T05:28:02;10.65;;;5.22;;
13832;SDS011;6987;19.472;-99.276;2023-02-04T05:30:31;7.78;;;5.68;;
13832;SDS011;6987;19.472;-99.276;2023-02-04T05:33:02;8.60;;;4.93;;
13832;SDS011;6987;19.472;-99.276;2023-02-04T05:35:31;8.35;;;4.95;;
13832;SDS011;6987;19.472;-99.276;2023-02-04T05:37:59;5.63;;;5.13;;
13832;SDS011;6987;19.472;-99.276;2023-02-04T05:40:29;8.20;;;5.13;;
13832;SDS011;6987;19.472;-99.276;2023-02-04T05:42:57;6.40;;;5.80;;
13832;SDS011;6987;19.472;-99.276;2023-02-04T05:45:26;7.13;;;5.97;;
13832;SDS011;6987;19.472;-99.276;2023-02-04T05:47:55;8.35;;;5.38;;
13832;SDS011;6987;19.472;-99.276;2023-02-04T05:50:26;6.15;;;5.07;;
13832;SDS011;6987;19.472;-99.276;2023-02-04T05:52:54;6.90;;;5.13;;
13832;SDS011;6987;19.472;-99.276;2023-02-04T05:55:23;7.43;;;5.70;;
13832;SDS011;6987;19.472;-99.276;2023-02-04T05:57:52;8.13;;;5.65;;
13832;SDS011;6987;19.472;-99.276;2023-02-04T06:00:21;9.32;;;6.07;;
13832;SDS011;6987;19.472;-99.276;2023-02-04T06:02:50;8.18;;;6.35;;
13832;SDS011;6987;19.472;-99.276;2023-02-04T06:05:19;8.23;;;5.93;;
13832;SDS011;6987;19.472;-99.276;2023-02-04T06:07:50;9.25;;;5.50;;
13832;SDS011;6987;19.472;-99.276;2023-02-04T06:10:19;11.30;;;5.75;;
13832;SDS011;6987;19.472;-99.276;2023-02-04T06:12:47;5.97;;;5.38;;
13832;SDS011;6987;19.472;-99.276;2023-02-04T06:15:19;5.88;;;5.25;;
13832;SDS011;6987;19.472;-99.276;2023-02-04T06:17:48;8.07;;;5.00;;
13832;SDS011;6987;19.472;-99.276;2023-02-04T06:20:18;6.55;;;5.07;;
13832;SDS011;6987;19.472;-99.276;2023-02-04T06:22:46;6.43;;;5.07;;
13832;SDS011;6987;19.472;-99.276;2023-02-04T06:25:18;13.30;;;5.57;;
13832;SDS011;6987;19.472;-99.276;2023-02-04T06:27:46;12.02;;;5.95;;
13832;SDS011;6987;19.472;-99.276;2023-02-04T06:30:16;6.20;;;5.28;;
13832;SDS011;6987;19.472;-99.276;2023-02-04T06:32:45;7.65;;;4.82;;
13832;SDS011;6987;19.472;-99.276;2023-02-04T06:35:14;8.73;;;5.43;;
13832;SDS011;6987;19.472;-99.276;2023-02-04T06:37:43;9.32;;;5.85;;
13832;SDS011;6987;19.472;-99.276;2023-02-04T06:40:12;6.07;;;5.47;;
13832;SDS011;6987;19.472;-99.276;2023-02-04T06:42:42;5.70;;;5.05;;
13832;SDS011;6987;19.472;-99.276;2023-02-04T06:45:11;8.77;;;5.75;;
13832;SDS011;6987;19.472;-99.276;2023-02-04T06:47:40;7.35;;;5.50;;
13832;SDS011;6987;19.472;-99.276;2023-02-04T06:50:09;8.13;;;5.68;;
13832;SDS011;6987;19.472;-99.276;2023-02-04T06:52:43;6.13;;;5.53;;
13832;SDS011;6987;19.472;-99.276;2023-02-04T06:55:12;6.53;;;5.05;;
13832;SDS011;6987;19.472;-99.276;2023-02-04T06:57:43;7.00;;;5.63;;
13832;SDS011;6987;19.472;-99.276;2023-02-04T07:00:12;6.07;;;5.15;;
13832;SDS011;6987;19.472;-99.276;2023-02-04T07:02:41;6.40;;;5.78;;
13832;SDS011;6987;19.472;-99.276;2023-02-04T07:05:10;8.18;;;6.25;;
13832;SDS011;6987;19.472;-99.276;2023-02-04T07:07:39;6.40;;;5.63;;
13832;SDS011;6987;19.472;-99.276;2023-02-04T07:10:08;6.00;;;5.22;;
13832;SDS011;6987;19.472;-99.276;2023-02-04T07:12:39;6.80;;;6.05;;
13832;SDS011;6987;19.472;-99.276;2023-02-04T07:15:10;6.85;;;6.18;;
13832;SDS011;6987;19.472;-99.276;2023-02-04T07:17:39;8.77;;;5.50;;
13832;SDS011;6987;19.472;-99.276;2023-02-04T07:20:08;6.97;;;5.70;;
13832;SDS011;6987;19.472;-99.276;2023-02-04T07:22:37;9.45;;;6.30;;
13832;SDS011;6987;19.472;-99.276;2023-02-04T07:25:07;7.28;;;5.90;;
13832;SDS011;6987;19.472;-99.276;2023-02-04T07:27:36;9.77;;;6.15;;
13832;SDS011;6987;19.472;-99.276;2023-02-04T07:30:05;9.38;;;6.47;;
13832;SDS011;6987;19.472;-99.276;2023-02-04T07:32:35;6.65;;;6.00;;
13832;SDS011;6987;19.472;-99.276;2023-02-04T07:35:05;7.10;;;6.28;;
13832;SDS011;6987;19.472;-99.276;2023-02-04T07:37:33;6.10;;;5.60;;
13832;SDS011;6987;19.472;-99.276;2023-02-04T07:40:02;8.48;;;6.35;;
13832;SDS011;6987;19.472;-99.276;2023-02-04T07:42:31;8.95;;;6.43;;
13832;SDS011;6987;19.472;-99.276;2023-02-04T07:45:00;6.60;;;5.70;;
13832;SDS011;6987;19.472;-99.276;2023-02-04T07:47:29;8.30;;;6.60;;
13832;SDS011;6987;19.472;-99.276;2023-02-04T07:50:00;8.75;;;6.45;;
13832;SDS011;6987;19.472;-99.276;2023-02-04T07:52:29;7.65;;;6.82;;
13832;SDS011;6987;19.472;-99.276;2023-02-04T07:54:58;7.35;;;6.57;;
13832;SDS011;6987;19.472;-99.276;2023-02-04T07:57:26;6.85;;;6.10;;
13832;SDS011;6987;19.472;-99.276;2023-02-04T07:59:55;12.13;;;6.90;;
13832;SDS011;6987;19.472;-99.276;2023-02-04T08:02:24;6.97;;;6.18;;
13832;SDS011;6987;19.472;-99.276;2023-02-04T08:04:53;11.38;;;6.90;;
13832;SDS011;6987;19.472;-99.276;2023-02-04T08:07:24;10.27;;;7.18;;
13832;SDS011;6987;19.472;-99.276;2023-02-04T08:09:53;8.88;;;6.47;;
13832;SDS011;6987;19.472;-99.276;2023-02-04T08:12:22;14.15;;;6.90;;
13832;SDS011;6987;19.472;-99.276;2023-02-04T08:14:51;10.18;;;7.28;;
13832;SDS011;6987;19.472;-99.276;2023-02-04T08:17:19;10.35;;;6.78;;
13832;SDS011;6987;19.472;-99.276;2023-02-04T08:19:48;8.23;;;6.43;;
13832;SDS011;6987;19.472;-99.276;2023-02-04T08:22:17;8.10;;;6.88;;
13832;SDS011;6987;19.472;-99.276;2023-02-04T08:24:48;9.68;;;6.75;;
13832;SDS011;6987;19.472;-99.276;2023-02-04T08:27:17;9.45;;;5.78;;
13832;SDS011;6987;19.472;-99.276;2023-02-04T08:29:45;9.82;;;7.20;;
13832;SDS011;6987;19.472;-99.276;2023-02-04T08:32:14;10.95;;;7.80;;
13832;SDS011;6987;19.472;-99.276;2023-02-04T08:34:43;8.25;;;6.25;;
13832;SDS011;6987;19.472;-99.276;2023-02-04T08:37:13;7.97;;;7.15;;
13832;SDS011;6987;19.472;-99.276;2023-02-04T08:39:42;9.38;;;7.35;;
13832;SDS011;6987;19.472;-99.276;2023-02-04T08:42:12;11.32;;;7.38;;
13832;SDS011;6987;19.472;-99.276;2023-02-04T08:44:41;9.88;;;6.63;;
13832;SDS011;6987;19.472;-99.276;2023-02-04T08:47:10;8.10;;;6.95;;
13832;SDS011;6987;19.472;-99.276;2023-02-04T08:49:39;9.10;;;8.20;;
13832;SDS011;6987;19.472;-99.276;2023-02-04T08:52:08;11.55;;;7.65;;
13832;SDS011;6987;19.472;-99.276;2023-02-04T08:54:37;9.02;;;7.53;;
13832;SDS011;6987;19.472;-99.276;2023-02-04T08:57:05;12.98;;;8.20;;
13832;SDS011;6987;19.472;-99.276;2023-02-04T08:59:36;10.05;;;7.97;;
13832;SDS011;6987;19.472;-99.276;2023-02-04T09:02:05;13.18;;;7.53;;
13832;SDS011;6987;19.472;-99.276;2023-02-04T09:04:34;9.98;;;8.10;;
13832;SDS011;6987;19.472;-99.276;2023-02-04T09:07:02;9.40;;;7.68;;
13832;SDS011;6987;19.472;-99.276;2023-02-04T09:09:31;10.05;;;7.55;;
13832;SDS011;6987;19.472;-99.276;2023-02-04T09:12:00;11.73;;;7.93;;
13832;SDS011;6987;19.472;-99.276;2023-02-04T09:14:29;9.98;;;7.18;;
13832;SDS011;6987;19.472;-99.276;2023-02-04T09:16:59;14.35;;;7.47;;
13832;SDS011;6987;19.472;-99.276;2023-02-04T09:19:30;8.55;;;7.70;;
13832;SDS011;6987;19.472;-99.276;2023-02-04T09:22:00;12.38;;;8.65;;
13832;SDS011;6987;19.472;-99.276;2023-02-04T09:24:29;10.05;;;7.80;;
13832;SDS011;6987;19.472;-99.276;2023-02-04T09:26:57;10.82;;;7.50;;
13832;SDS011;6987;19.472;-99.276;2023-02-04T09:29:26;10.05;;;8.55;;
13832;SDS011;6987;19.472;-99.276;2023-02-04T09:31:55;10.55;;;8.00;;
13832;SDS011;6987;19.472;-99.276;2023-02-04T09:34:26;13.93;;;7.53;;
13832;SDS011;6987;19.472;-99.276;2023-02-04T09:36:55;10.68;;;7.85;;
13832;SDS011;6987;19.472;-99.276;2023-02-04T09:39:23;9.32;;;7.95;;
13832;SDS011;6987;19.472;-99.276;2023-02-04T09:41:52;11.70;;;8.23;;
13832;SDS011;6987;19.472;-99.276;2023-02-04T09:44:22;13.32;;;8.02;;
13832;SDS011;6987;19.472;-99.276;2023-02-04T09:46:53;9.05;;;8.00;;
13832;SDS011;6987;19.472;-99.276;2023-02-04T09:49:23;10.18;;;7.60;;
13832;SDS011;6987;19.472;-99.276;2023-02-04T09:51:54;11.57;;;7.70;;
13832;SDS011;6987;19.472;-99.276;2023-02-04T09:54:24;15.32;;;7.40;;
13832;SDS011;6987;19.472;-99.276;2023-02-04T09:56:53;8.70;;;7.32;;
13832;SDS011;6987;19.472;-99.276;2023-02-04T09:59:22;13.05;;;7.60;;
13832;SDS011;6987;19.472;-99.276;2023-02-04T10:01:54;11.20;;;7.78;;
13832;SDS011;6987;19.472;-99.276;2023-02-04T10:04:23;7.63;;;6.93;;
13832;SDS011;6987;19.472;-99.276;2023-02-04T10:06:52;12.73;;;8.30;;
13832;SDS011;6987;19.472;-99.276;2023-02-04T10:09:24;8.35;;;7.35;;
13832;SDS011;6987;19.472;-99.276;2023-02-04T10:11:53;9.07;;;6.90;;
13832;SDS011;6987;19.472;-99.276;2023-02-04T10:14:22;10.90;;;7.28;;
13832;SDS011;6987;19.472;-99.276;2023-02-04T10:16:52;13.27;;;7.80;;
13832;SDS011;6987;19.472;-99.276;2023-02-04T10:19:21;8.43;;;7.50;;
13832;SDS011;6987;19.472;-99.276;2023-02-04T10:21:50;13.68;;;7.75;;
13832;SDS011;6987;19.472;-99.276;2023-02-04T10:24:20;9.23;;;7.43;;
13832;SDS011;6987;19.472;-99.276;2023-02-04T10:26:52;11.13;;;7.70;;
13832;SDS011;6987;19.472;-99.276;2023-02-04T10:29:22;7.85;;;6.32;;
13832;SDS011;6987;19.472;-99.276;2023-02-04T10:31:51;7.97;;;7.22;;
13832;SDS011;6987;19.472;-99.276;2023-02-04T10:34:21;7.95;;;6.45;;
13832;SDS011;6987;19.472;-99.276;2023-02-04T10:36:50;7.88;;;7.03;;
13832;SDS011;6987;19.472;-99.276;2023-02-04T10:39:22;8.68;;;7.53;;
13832;SDS011;6987;19.472;-99.276;2023-02-04T10:41:53;9.68;;;7.40;;
13832;SDS011;6987;19.472;-99.276;2023-02-04T10:44:24;10.50;;;7.38;;
13832;SDS011;6987;19.472;-99.276;2023-02-04T10:47:00;8.35;;;7.30;;
13832;SDS011;6987;19.472;-99.276;2023-02-04T10:49:29;8.48;;;7.22;;
13832;SDS011;6987;19.472;-99.276;2023-02-04T10:51:59;10.65;;;6.95;;
13832;SDS011;6987;19.472;-99.276;2023-02-04T10:54:31;9.68;;;6.50;;
13832;SDS011;6987;19.472;-99.276;2023-02-04T10:57:06;9.63;;;7.63;;
13832;SDS011;6987;19.472;-99.276;2023-02-04T10:59:36;10.43;;;7.40;;
13832;SDS011;6987;19.472;-99.276;2023-02-04T11:02:15;11.57;;;7.57;;
13832;SDS011;6987;19.472;-99.276;2023-02-04T11:04:51;10.80;;;8.05;;
13832;SDS011;6987;19.472;-99.276;2023-02-04T11:07:20;9.18;;;7.28;;
13832;SDS011;6987;19.472;-99.276;2023-02-04T11:09:50;11.55;;;7.47;;
13832;SDS011;6987;19.472;-99.276;2023-02-04T11:12:21;8.87;;;7.10;;
13832;SDS011;6987;19.472;-99.276;2023-02-04T11:14:54;9.73;;;7.53;;
13832;SDS011;6987;19.472;-99.276;2023-02-04T11:17:28;10.07;;;7.60;;
13832;SDS011;6987;19.472;-99.276;2023-02-04T11:19:57;8.32;;;7.05;;
13832;SDS011;6987;19.472;-99.276;2023-02-04T11:22:35;9.10;;;7.82;;
13832;SDS011;6987;19.472;-99.276;2023-02-04T11:25:29;9.10;;;8.17;;
13832;SDS011;6987;19.472;-99.276;2023-02-04T11:27:58;9.52;;;7.88;;
13832;SDS011;6987;19.472;-99.276;2023-02-04T11:30:30;9.43;;;8.20;;
13832;SDS011;6987;19.472;-99.276;2023-02-04T11:33:02;9.00;;;8.05;;
13832;SDS011;6987;19.472;-99.276;2023-02-04T11:35:32;8.77;;;7.88;;
13832;SDS011;6987;19.472;-99.276;2023-02-04T11:38:02;9.07;;;7.77;;
13832;SDS011;6987;19.472;-99.276;2023-02-04T11:40:31;9.32;;;7.65;;
13832;SDS011;6987;19.472;-99.276;2023-02-04T11:43:09;10.80;;;7.57;;
13832;SDS011;6987;19.472;-99.276;2023-02-04T11:45:39;12.05;;;9.38;;
13832;SDS011;6987;19.472;-99.276;2023-02-04T11:48:10;15.38;;;8.85;;
13832;SDS011;6987;19.472;-99.276;2023-02-04T11:50:40;9.52;;;8.27;;
13832;SDS011;6987;19.472;-99.276;2023-02-04T11:53:10;12.77;;;8.30;;
13832;SDS011;6987;19.472;-99.276;2023-02-04T11:55:43;8.93;;;8.02;;
13832;SDS011;6987;19.472;-99.276;2023-02-04T11:58:15;9.17;;;7.73;;
13832;SDS011;6987;19.472;-99.276;2023-02-04T12:00:44;9.75;;;7.85;;
13832;SDS011;6987;19.472;-99.276;2023-02-04T12:03:20;8.70;;;7.63;;
13832;SDS011;6987;19.472;-99.276;2023-02-04T12:05:49;9.10;;;8.18;;
13832;SDS011;6987;19.472;-99.276;2023-02-04T12:08:26;8.38;;;7.40;;
13832;SDS011;6987;19.472;-99.276;2023-02-04T12:10:59;8.80;;;7.40;;
13832;SDS011;6987;19.472;-99.276;2023-02-04T12:13:30;12.80;;;8.60;;
13832;SDS011;6987;19.472;-99.276;2023-02-04T12:15:59;9.32;;;8.05;;
13832;SDS011;6987;19.472;-99.276;2023-02-04T12:18:28;9.20;;;8.18;;
13832;SDS011;6987;19.472;-99.276;2023-02-04T12:20:58;9.67;;;8.00;;
13832;SDS011;6987;19.472;-99.276;2023-02-04T12:23:29;13.57;;;8.23;;
13832;SDS011;6987;19.472;-99.276;2023-02-04T12:25:58;8.98;;;7.43;;
13832;SDS011;6987;19.472;-99.276;2023-02-04T12:28:27;9.80;;;8.05;;
13832;SDS011;6987;19.472;-99.276;2023-02-04T12:30:57;11.40;;;8.27;;
13832;SDS011;6987;19.472;-99.276;2023-02-04T12:33:26;9.07;;;7.60;;
13832;SDS011;6987;19.472;-99.276;2023-02-04T12:35:55;13.67;;;8.43;;
13832;SDS011;6987;19.472;-99.276;2023-02-04T12:38:24;12.20;;;8.37;;
13832;SDS011;6987;19.472;-99.276;2023-02-04T12:40:53;10.90;;;8.30;;
13832;SDS011;6987;19.472;-99.276;2023-02-04T12:43:22;11.38;;;8.38;;
13832;SDS011;6987;19.472;-99.276;2023-02-04T12:45:51;9.23;;;7.90;;
13832;SDS011;6987;19.472;-99.276;2023-02-04T12:48:22;11.97;;;8.27;;
13832;SDS011;6987;19.472;-99.276;2023-02-04T12:50:51;10.00;;;7.70;;
13832;SDS011;6987;19.472;-99.276;2023-02-04T12:53:19;12.17;;;8.77;;
13832;SDS011;6987;19.472;-99.276;2023-02-04T12:55:48;11.10;;;7.82;;
13832;SDS011;6987;19.472;-99.276;2023-02-04T12:58:17;13.17;;;7.83;;
13832;SDS011;6987;19.472;-99.276;2023-02-04T13:00:46;11.40;;;8.13;;
13832;SDS011;6987;19.472;-99.276;2023-02-04T13:03:15;12.30;;;8.73;;
13832;SDS011;6987;19.472;-99.276;2023-02-04T13:05:45;11.50;;;8.20;;
13832;SDS011;6987;19.472;-99.276;2023-02-04T13:08:14;14.50;;;9.37;;
13832;SDS011;6987;19.472;-99.276;2023-02-04T13:10:43;11.00;;;8.73;;
13832;SDS011;6987;19.472;-99.276;2023-02-04T13:13:16;17.67;;;9.43;;
13832;SDS011;6987;19.472;-99.276;2023-02-04T13:15:46;12.03;;;8.97;;
13832;SDS011;6987;19.472;-99.276;2023-02-04T13:18:15;8.43;;;7.45;;
13832;SDS011;6987;19.472;-99.276;2023-02-04T13:20:46;15.93;;;8.82;;
13832;SDS011;6987;19.472;-99.276;2023-02-04T13:23:15;10.65;;;8.88;;
13832;SDS011;6987;19.472;-99.276;2023-02-04T13:25:44;15.90;;;8.50;;
13832;SDS011;6987;19.472;-99.276;2023-02-04T13:28:13;15.60;;;9.20;;
13832;SDS011;6987;19.472;-99.276;2023-02-04T13:30:42;16.42;;;9.30;;
13832;SDS011;6987;19.472;-99.276;2023-02-04T13:33:10;13.77;;;8.73;;
13832;SDS011;6987;19.472;-99.276;2023-02-04T13:35:39;19.27;;;9.65;;
13832;SDS011;6987;19.472;-99.276;2023-02-04T13:38:11;15.97;;;9.27;;
13832;SDS011;6987;19.472;-99.276;2023-02-04T13:40:40;17.07;;;9.97;;
13832;SDS011;6987;19.472;-99.276;2023-02-04T13:43:09;18.00;;;10.57;;
13832;SDS011;6987;19.472;-99.276;2023-02-04T13:45:38;17.63;;;10.23;;
13832;SDS011;6987;19.472;-99.276;2023-02-04T13:48:12;12.77;;;9.57;;
13832;SDS011;6987;19.472;-99.276;2023-02-04T13:50:41;31.73;;;10.10;;
13832;SDS011;6987;19.472;-99.276;2023-02-04T13:53:11;17.00;;;10.38;;
13832;SDS011;6987;19.472;-99.276;2023-02-04T13:55:40;14.40;;;9.43;;
13832;SDS011;6987;19.472;-99.276;2023-02-04T13:58:09;20.65;;;10.15;;
13832;SDS011;6987;19.472;-99.276;2023-02-04T14:00:38;20.92;;;10.75;;
13832;SDS011;6987;19.472;-99.276;2023-02-04T14:03:06;17.98;;;10.20;;
13832;SDS011;6987;19.472;-99.276;2023-02-04T14:05:35;25.48;;;10.77;;
13832;SDS011;6987;19.472;-99.276;2023-02-04T14:08:04;22.45;;;12.30;;
13832;SDS011;6987;19.472;-99.276;2023-02-04T14:10:35;26.75;;;11.60;;
13832;SDS011;6987;19.472;-99.276;2023-02-04T14:13:03;18.35;;;9.82;;
13832;SDS011;6987;19.472;-99.276;2023-02-04T14:15:32;16.08;;;10.20;;
13832;SDS011;6987;19.472;-99.276;2023-02-04T14:18:02;16.45;;;9.55;;
13832;SDS011;6987;19.472;-99.276;2023-02-04T14:20:31;22.17;;;10.20;;
13832;SDS011;6987;19.472;-99.276;2023-02-04T14:23:00;23.20;;;9.77;;
13832;SDS011;6987;19.472;-99.276;2023-02-04T14:25:29;17.60;;;10.60;;
13832;SDS011;6987;19.472;-99.276;2023-02-04T14:28:00;15.97;;;9.80;;
13832;SDS011;6987;19.472;-99.276;2023-02-04T14:30:29;22.43;;;11.30;;
13832;SDS011;6987;19.472;-99.276;2023-02-04T14:32:58;20.88;;;11.18;;
13832;SDS011;6987;19.472;-99.276;2023-02-04T14:35:27;20.33;;;10.93;;
13832;SDS011;6987;19.472;-99.276;2023-02-04T14:37:56;29.55;;;11.95;;
13832;SDS011;6987;19.472;-99.276;2023-02-04T14:40:25;17.13;;;9.85;;
13832;SDS011;6987;19.472;-99.276;2023-02-04T14:42:54;18.75;;;10.35;;